sensor_id;sensor_type;location;lat;lon;timestamp;temperature;humidity
21355;DHT22;10835;50.148;19.760;2024-01-30T00:00:01;16.90;43.30
21355;DHT22;10835;50.148;19.760;2024-01-30T00:02:31;17.10;43.80
21355;DHT22;10835;50.148;19.760;2024-01-30T00:05:00;17.10;43.10
21355;DHT22;10835;50.148;19.760;2024-01-30T00:07:28;17.00;42.90
21355;DHT22;10835;50.148;19.760;2024-01-30T00:09:57;16.80;43.80
21355;DHT22;10835;50.148;19.760;2024-01-30T00:12:25;16.90;44.40
21355;DHT22;10835;50.148;19.760;2024-01-30T00:14:54;17.10;44.40
21355;DHT22;10835;50.148;19.760;2024-01-30T00:17:24;17.00;44.30
21355;DHT22;10835;50.148;19.760;2024-01-30T00:19:53;17.30;44.10
21355;DHT22;10835;50.148;19.760;2024-01-30T00:22:22;16.70;44.60
21355;DHT22;10835;50.148;19.760;2024-01-30T00:24:51;16.90;44.40
21355;DHT22;10835;50.148;19.760;2024-01-30T00:27:19;17.30;44.30
21355;DHT22;10835;50.148;19.760;2024-01-30T00:29:48;17.40;44.40
21355;DHT22;10835;50.148;19.760;2024-01-30T00:32:16;17.40;43.60
21355;DHT22;10835;50.148;19.760;2024-01-30T00:34:47;17.10;43.50
21355;DHT22;10835;50.148;19.760;2024-01-30T00:37:16;16.80;44.00
21355;DHT22;10835;50.148;19.760;2024-01-30T00:39:45;17.20;43.90
21355;DHT22;10835;50.148;19.760;2024-01-30T00:42:13;17.40;43.70
21355;DHT22;10835;50.148;19.760;2024-01-30T00:44:42;17.50;43.40
21355;DHT22;10835;50.148;19.760;2024-01-30T00:47:10;17.80;43.30
21355;DHT22;10835;50.148;19.760;2024-01-30T00:49:39;17.80;42.70
21355;DHT22;10835;50.148;19.760;2024-01-30T00:52:08;17.80;43.00
21355;DHT22;10835;50.148;19.760;2024-01-30T00:54:37;17.80;43.10
21355;DHT22;10835;50.148;19.760;2024-01-30T00:57:06;17.60;42.80
21355;DHT22;10835;50.148;19.760;2024-01-30T00:59:34;17.60;43.50
21355;DHT22;10835;50.148;19.760;2024-01-30T01:02:03;17.80;42.70
21355;DHT22;10835;50.148;19.760;2024-01-30T01:04:31;17.50;42.50
21355;DHT22;10835;50.148;19.760;2024-01-30T01:07:00;17.60;43.10
21355;DHT22;10835;50.148;19.760;2024-01-30T01:09:30;17.40;43.50
21355;DHT22;10835;50.148;19.760;2024-01-30T01:11:58;17.50;42.50
21355;DHT22;10835;50.148;19.760;2024-01-30T01:14:27;17.70;41.90
21355;DHT22;10835;50.148;19.760;2024-01-30T01:16:55;17.90;41.80
21355;DHT22;10835;50.148;19.760;2024-01-30T01:19:23;18.00;41.00
21355;DHT22;10835;50.148;19.760;2024-01-30T01:21:52;18.10;41.20
21355;DHT22;10835;50.148;19.760;2024-01-30T01:24:21;17.90;40.80
21355;DHT22;10835;50.148;19.760;2024-01-30T01:26:50;18.00;41.10
21355;DHT22;10835;50.148;19.760;2024-01-30T01:29:19;17.90;40.70
21355;DHT22;10835;50.148;19.760;2024-01-30T01:31:55;17.90;41.00
21355;DHT22;10835;50.148;19.760;2024-01-30T01:34:24;17.60;41.30
21355;DHT22;10835;50.148;19.760;2024-01-30T01:36:57;17.60;41.50
21355;DHT22;10835;50.148;19.760;2024-01-30T01:39:25;17.60;41.30
21355;DHT22;10835;50.148;19.760;2024-01-30T01:41:55;17.60;41.50
21355;DHT22;10835;50.148;19.760;2024-01-30T01:44:23;17.60;41.10
21355;DHT22;10835;50.148;19.760;2024-01-30T01:46:52;17.90;40.10
21355;DHT22;10835;50.148;19.760;2024-01-30T01:49:22;18.10;39.60
21355;DHT22;10835;50.148;19.760;2024-01-30T01:51:55;18.20;39.60
21355;DHT22;10835;50.148;19.760;2024-01-30T01:54:25;18.40;39.30
21355;DHT22;10835;50.148;19.760;2024-01-30T01:56:56;18.40;39.10
21355;DHT22;10835;50.148;19.760;2024-01-30T01:59:25;18.20;39.90
21355;DHT22;10835;50.148;19.760;2024-01-30T02:01:55;18.10;40.10
21355;DHT22;10835;50.148;19.760;2024-01-30T02:04:24;18.10;40.10
21355;DHT22;10835;50.148;19.760;2024-01-30T02:06:53;17.80;40.70
21355;DHT22;10835;50.148;19.760;2024-01-30T02:09:21;18.00;40.80
21355;DHT22;10835;50.148;19.760;2024-01-30T02:11:50;18.10;41.50
21355;DHT22;10835;50.148;19.760;2024-01-30T02:14:20;18.20;40.30
21355;DHT22;10835;50.148;19.760;2024-01-30T02:16:48;18.00;40.10
21355;DHT22;10835;50.148;19.760;2024-01-30T02:19:16;17.90;39.90
21355;DHT22;10835;50.148;19.760;2024-01-30T02:21:47;17.40;40.80
21355;DHT22;10835;50.148;19.760;2024-01-30T02:24:15;17.50;40.80
21355;DHT22;10835;50.148;19.760;2024-01-30T02:26:44;17.60;40.40
21355;DHT22;10835;50.148;19.760;2024-01-30T02:29:12;17.80;40.70
21355;DHT22;10835;50.148;19.760;2024-01-30T02:31:41;17.80;40.70
21355;DHT22;10835;50.148;19.760;2024-01-30T02:34:09;17.60;40.20
21355;DHT22;10835;50.148;19.760;2024-01-30T02:36:38;17.70;40.30
21355;DHT22;10835;50.148;19.760;2024-01-30T02:39:08;17.90;39.70
21355;DHT22;10835;50.148;19.760;2024-01-30T02:41:36;17.90;39.10
21355;DHT22;10835;50.148;19.760;2024-01-30T02:44:05;17.50;40.20
21355;DHT22;10835;50.148;19.760;2024-01-30T02:46:33;16.90;40.90
21355;DHT22;10835;50.148;19.760;2024-01-30T02:49:01;17.10;41.20
21355;DHT22;10835;50.148;19.760;2024-01-30T02:51:30;17.20;40.90
21355;DHT22;10835;50.148;19.760;2024-01-30T02:53:58;17.40;41.00
21355;DHT22;10835;50.148;19.760;2024-01-30T02:56:28;17.10;40.90
21355;DHT22;10835;50.148;19.760;2024-01-30T02:58:56;16.50;41.30
21355;DHT22;10835;50.148;19.760;2024-01-30T03:01:25;16.70;41.80
21355;DHT22;10835;50.148;19.760;2024-01-30T03:03:53;17.00;41.70
21355;DHT22;10835;50.148;19.760;2024-01-30T03:06:22;17.20;41.70
21355;DHT22;10835;50.148;19.760;2024-01-30T03:08:51;17.00;41.30
21355;DHT22;10835;50.148;19.760;2024-01-30T03:11:19;17.20;41.30
21355;DHT22;10835;50.148;19.760;2024-01-30T03:13:49;17.10;41.40
21355;DHT22;10835;50.148;19.760;2024-01-30T03:16:17;17.00;41.20
21355;DHT22;10835;50.148;19.760;2024-01-30T03:18:46;16.30;41.20
21355;DHT22;10835;50.148;19.760;2024-01-30T03:21:15;16.70;41.90
21355;DHT22;10835;50.148;19.760;2024-01-30T03:23:43;16.80;42.30
21355;DHT22;10835;50.148;19.760;2024-01-30T03:26:12;16.30;41.80
21355;DHT22;10835;50.148;19.760;2024-01-30T03:28:42;16.00;42.60
21355;DHT22;10835;50.148;19.760;2024-01-30T03:31:15;16.30;42.90
21355;DHT22;10835;50.148;19.760;2024-01-30T03:33:44;16.70;42.50
21355;DHT22;10835;50.148;19.760;2024-01-30T03:36:13;16.40;42.50
21355;DHT22;10835;50.148;19.760;2024-01-30T03:38:41;16.90;42.10
21355;DHT22;10835;50.148;19.760;2024-01-30T03:41:10;17.20;40.60
21355;DHT22;10835;50.148;19.760;2024-01-30T03:43:38;17.50;40.30
21355;DHT22;10835;50.148;19.760;2024-01-30T03:46:07;17.70;39.60
21355;DHT22;10835;50.148;19.760;2024-01-30T03:48:37;17.90;39.20
21355;DHT22;10835;50.148;19.760;2024-01-30T03:51:06;18.00;38.90
21355;DHT22;10835;50.148;19.760;2024-01-30T03:53:35;18.10;38.70
21355;DHT22;10835;50.148;19.760;2024-01-30T03:56:04;18.10;38.20
21355;DHT22;10835;50.148;19.760;2024-01-30T03:58:32;18.00;38.70
21355;DHT22;10835;50.148;19.760;2024-01-30T04:01:01;17.50;39.00
21355;DHT22;10835;50.148;19.760;2024-01-30T04:03:29;17.60;39.30
21355;DHT22;10835;50.148;19.760;2024-01-30T04:05:59;17.70;38.50
21355;DHT22;10835;50.148;19.760;2024-01-30T04:08:28;17.90;39.10
21355;DHT22;10835;50.148;19.760;2024-01-30T04:10:56;18.00;39.00
21355;DHT22;10835;50.148;19.760;2024-01-30T04:13:25;17.90;38.20
21355;DHT22;10835;50.148;19.760;2024-01-30T04:15:53;18.00;38.40
21355;DHT22;10835;50.148;19.760;2024-01-30T04:18:23;17.80;38.00
21355;DHT22;10835;50.148;19.760;2024-01-30T04:20:52;17.90;38.50
21355;DHT22;10835;50.148;19.760;2024-01-30T04:23:22;17.60;38.80
21355;DHT22;10835;50.148;19.760;2024-01-30T04:25:50;17.30;39.40
21355;DHT22;10835;50.148;19.760;2024-01-30T04:28:18;16.80;39.90
21355;DHT22;10835;50.148;19.760;2024-01-30T04:30:47;16.70;40.70
21355;DHT22;10835;50.148;19.760;2024-01-30T04:33:15;16.70;40.60
21355;DHT22;10835;50.148;19.760;2024-01-30T04:35:45;16.50;40.70
21355;DHT22;10835;50.148;19.760;2024-01-30T04:38:14;16.60;41.10
21355;DHT22;10835;50.148;19.760;2024-01-30T04:40:43;16.80;40.90
21355;DHT22;10835;50.148;19.760;2024-01-30T04:43:12;16.80;41.10
21355;DHT22;10835;50.148;19.760;2024-01-30T04:45:42;17.10;40.10
21355;DHT22;10835;50.148;19.760;2024-01-30T04:48:10;17.20;40.00
21355;DHT22;10835;50.148;19.760;2024-01-30T04:50:39;17.30;39.80
21355;DHT22;10835;50.148;19.760;2024-01-30T04:53:07;17.30;38.90
21355;DHT22;10835;50.148;19.760;2024-01-30T04:55:36;17.40;39.70
21355;DHT22;10835;50.148;19.760;2024-01-30T04:58:05;17.10;39.80
21355;DHT22;10835;50.148;19.760;2024-01-30T05:00:35;17.10;40.10
21355;DHT22;10835;50.148;19.760;2024-01-30T05:03:03;17.10;40.30
21355;DHT22;10835;50.148;19.760;2024-01-30T05:05:32;17.30;39.50
21355;DHT22;10835;50.148;19.760;2024-01-30T05:08:01;17.50;38.90
21355;DHT22;10835;50.148;19.760;2024-01-30T05:10:29;17.50;38.50
21355;DHT22;10835;50.148;19.760;2024-01-30T05:12:58;17.60;38.50
21355;DHT22;10835;50.148;19.760;2024-01-30T05:15:28;17.60;38.90
21355;DHT22;10835;50.148;19.760;2024-01-30T05:17:56;17.70;38.50
21355;DHT22;10835;50.148;19.760;2024-01-30T05:20:25;17.70;38.10
21355;DHT22;10835;50.148;19.760;2024-01-30T05:22:55;17.70;37.80
21355;DHT22;10835;50.148;19.760;2024-01-30T05:25:24;17.50;37.80
21355;DHT22;10835;50.148;19.760;2024-01-30T05:27:52;17.40;38.90
21355;DHT22;10835;50.148;19.760;2024-01-30T05:30:22;17.40;38.70
21355;DHT22;10835;50.148;19.760;2024-01-30T05:32:52;17.30;39.10
21355;DHT22;10835;50.148;19.760;2024-01-30T05:35:20;17.20;39.00
21355;DHT22;10835;50.148;19.760;2024-01-30T05:37:49;17.30;38.70
21355;DHT22;10835;50.148;19.760;2024-01-30T05:40:18;17.20;38.80
21355;DHT22;10835;50.148;19.760;2024-01-30T05:42:46;17.00;39.40
21355;DHT22;10835;50.148;19.760;2024-01-30T05:45:14;17.10;39.40
21355;DHT22;10835;50.148;19.760;2024-01-30T05:47:43;16.90;39.70
21355;DHT22;10835;50.148;19.760;2024-01-30T05:50:13;16.60;39.80
21355;DHT22;10835;50.148;19.760;2024-01-30T05:52:42;16.60;39.80
21355;DHT22;10835;50.148;19.760;2024-01-30T05:55:11;16.40;40.20
21355;DHT22;10835;50.148;19.760;2024-01-30T05:57:39;16.60;40.00
21355;DHT22;10835;50.148;19.760;2024-01-30T06:00:08;16.80;39.80
21355;DHT22;10835;50.148;19.760;2024-01-30T06:02:37;16.30;40.00
21355;DHT22;10835;50.148;19.760;2024-01-30T06:05:06;16.10;40.50
21355;DHT22;10835;50.148;19.760;2024-01-30T06:07:36;16.10;41.10
21355;DHT22;10835;50.148;19.760;2024-01-30T06:10:06;16.10;41.20
21355;DHT22;10835;50.148;19.760;2024-01-30T06:12:36;16.20;40.80
21355;DHT22;10835;50.148;19.760;2024-01-30T06:15:05;16.00;41.10
21355;DHT22;10835;50.148;19.760;2024-01-30T06:17:34;16.00;41.10
21355;DHT22;10835;50.148;19.760;2024-01-30T06:20:04;15.80;41.70
21355;DHT22;10835;50.148;19.760;2024-01-30T06:22:33;15.60;42.10
21355;DHT22;10835;50.148;19.760;2024-01-30T06:25:03;15.70;41.90
21355;DHT22;10835;50.148;19.760;2024-01-30T06:27:32;15.80;42.40
21355;DHT22;10835;50.148;19.760;2024-01-30T06:30:01;15.90;42.40
21355;DHT22;10835;50.148;19.760;2024-01-30T06:32:29;16.00;42.10
21355;DHT22;10835;50.148;19.760;2024-01-30T06:35:01;16.20;41.80
21355;DHT22;10835;50.148;19.760;2024-01-30T06:37:30;16.30;41.50
21355;DHT22;10835;50.148;19.760;2024-01-30T06:39:58;16.50;41.40
21355;DHT22;10835;50.148;19.760;2024-01-30T06:42:28;16.10;41.70
21355;DHT22;10835;50.148;19.760;2024-01-30T06:44:57;16.30;41.90
21355;DHT22;10835;50.148;19.760;2024-01-30T06:47:25;16.40;41.90
21355;DHT22;10835;50.148;19.760;2024-01-30T06:49:55;16.70;41.10
21355;DHT22;10835;50.148;19.760;2024-01-30T06:52:24;17.10;40.50
21355;DHT22;10835;50.148;19.760;2024-01-30T06:54:53;17.40;40.20
21355;DHT22;10835;50.148;19.760;2024-01-30T06:57:21;17.70;39.50
21355;DHT22;10835;50.148;19.760;2024-01-30T06:59:51;17.90;39.40
21355;DHT22;10835;50.148;19.760;2024-01-30T07:02:19;18.10;39.00
21355;DHT22;10835;50.148;19.760;2024-01-30T07:04:48;18.20;38.80
21355;DHT22;10835;50.148;19.760;2024-01-30T07:07:17;18.30;38.60
21355;DHT22;10835;50.148;19.760;2024-01-30T07:09:46;18.40;38.50
21355;DHT22;10835;50.148;19.760;2024-01-30T07:12:17;18.50;38.40
21355;DHT22;10835;50.148;19.760;2024-01-30T07:14:45;18.60;38.40
21355;DHT22;10835;50.148;19.760;2024-01-30T07:17:15;18.60;38.10
21355;DHT22;10835;50.148;19.760;2024-01-30T07:19:43;18.70;38.00
21355;DHT22;10835;50.148;19.760;2024-01-30T07:22:12;18.70;38.10
21355;DHT22;10835;50.148;19.760;2024-01-30T07:24:42;18.90;38.50
21355;DHT22;10835;50.148;19.760;2024-01-30T07:27:14;19.00;38.80
21355;DHT22;10835;50.148;19.760;2024-01-30T07:29:45;19.10;38.30
21355;DHT22;10835;50.148;19.760;2024-01-30T07:32:15;19.10;38.80
21355;DHT22;10835;50.148;19.760;2024-01-30T07:34:43;19.20;39.00
21355;DHT22;10835;50.148;19.760;2024-01-30T07:37:29;19.30;39.20
21355;DHT22;10835;50.148;19.760;2024-01-30T07:39:58;19.40;39.00
21355;DHT22;10835;50.148;19.760;2024-01-30T07:42:26;19.50;39.00
21355;DHT22;10835;50.148;19.760;2024-01-30T07:44:55;19.60;39.00
21355;DHT22;10835;50.148;19.760;2024-01-30T07:47:25;19.70;39.00
21355;DHT22;10835;50.148;19.760;2024-01-30T07:49:54;19.80;39.00
21355;DHT22;10835;50.148;19.760;2024-01-30T07:52:22;20.00;38.80
21355;DHT22;10835;50.148;19.760;2024-01-30T07:54:51;20.10;39.00
21355;DHT22;10835;50.148;19.760;2024-01-30T07:57:19;20.20;38.90
21355;DHT22;10835;50.148;19.760;2024-01-30T07:59:48;20.30;39.00
21355;DHT22;10835;50.148;19.760;2024-01-30T08:02:16;20.40;39.00
21355;DHT22;10835;50.148;19.760;2024-01-30T08:04:46;20.50;39.00
21355;DHT22;10835;50.148;19.760;2024-01-30T08:07:17;20.50;39.30
21355;DHT22;10835;50.148;19.760;2024-01-30T08:09:45;20.70;39.80
21355;DHT22;10835;50.148;19.760;2024-01-30T08:12:14;20.70;38.90
21355;DHT22;10835;50.148;19.760;2024-01-30T08:14:42;20.80;39.00
21355;DHT22;10835;50.148;19.760;2024-01-30T08:17:11;20.90;39.10
21355;DHT22;10835;50.148;19.760;2024-01-30T08:19:39;21.00;39.00
21355;DHT22;10835;50.148;19.760;2024-01-30T08:22:09;21.20;39.20
21355;DHT22;10835;50.148;19.760;2024-01-30T08:24:38;21.30;39.20
21355;DHT22;10835;50.148;19.760;2024-01-30T08:27:07;21.30;39.00
21355;DHT22;10835;50.148;19.760;2024-01-30T08:29:36;21.50;39.00
21355;DHT22;10835;50.148;19.760;2024-01-30T08:32:05;21.60;39.50
21355;DHT22;10835;50.148;19.760;2024-01-30T08:34:34;21.70;38.70
21355;DHT22;10835;50.148;19.760;2024-01-30T08:37:03;21.70;38.60
21355;DHT22;10835;50.148;19.760;2024-01-30T08:39:33;21.60;38.70
21355;DHT22;10835;50.148;19.760;2024-01-30T08:42:02;21.70;38.60
21355;DHT22;10835;50.148;19.760;2024-01-30T08:44:30;21.70;38.60
21355;DHT22;10835;50.148;19.760;2024-01-30T08:46:58;21.90;38.40
21355;DHT22;10835;50.148;19.760;2024-01-30T08:49:27;21.90;38.30
21355;DHT22;10835;50.148;19.760;2024-01-30T08:51:56;22.10;37.40
21355;DHT22;10835;50.148;19.760;2024-01-30T08:54:25;22.20;37.00
21355;DHT22;10835;50.148;19.760;2024-01-30T08:56:55;22.20;38.30
21355;DHT22;10835;50.148;19.760;2024-01-30T08:59:25;22.30;38.00
21355;DHT22;10835;50.148;19.760;2024-01-30T09:01:54;22.30;38.00
21355;DHT22;10835;50.148;19.760;2024-01-30T09:04:38;22.30;37.90
21355;DHT22;10835;50.148;19.760;2024-01-30T09:07:08;22.20;38.20
21355;DHT22;10835;50.148;19.760;2024-01-30T09:09:38;21.30;38.90
21355;DHT22;10835;50.148;19.760;2024-01-30T09:12:09;21.40;39.40
21355;DHT22;10835;50.148;19.760;2024-01-30T09:14:39;21.10;38.90
21355;DHT22;10835;50.148;19.760;2024-01-30T09:17:08;21.10;38.50
21355;DHT22;10835;50.148;19.760;2024-01-30T09:19:37;20.60;40.50
21355;DHT22;10835;50.148;19.760;2024-01-30T09:22:06;20.50;40.90
21355;DHT22;10835;50.148;19.760;2024-01-30T09:24:35;20.40;41.20
21355;DHT22;10835;50.148;19.760;2024-01-30T09:27:03;20.50;41.20
21355;DHT22;10835;50.148;19.760;2024-01-30T09:29:33;20.60;41.00
21355;DHT22;10835;50.148;19.760;2024-01-30T09:32:05;20.60;40.60
21355;DHT22;10835;50.148;19.760;2024-01-30T09:34:34;20.60;41.20
21355;DHT22;10835;50.148;19.760;2024-01-30T09:37:03;20.70;40.10
21355;DHT22;10835;50.148;19.760;2024-01-30T09:39:32;21.10;39.60
21355;DHT22;10835;50.148;19.760;2024-01-30T09:42:05;21.00;38.60
21355;DHT22;10835;50.148;19.760;2024-01-30T09:44:36;20.40;39.20
21355;DHT22;10835;50.148;19.760;2024-01-30T09:47:06;20.20;38.10
21355;DHT22;10835;50.148;19.760;2024-01-30T09:49:35;19.20;39.50
21355;DHT22;10835;50.148;19.760;2024-01-30T09:52:05;18.40;40.60
21355;DHT22;10835;50.148;19.760;2024-01-30T09:54:35;18.20;41.40
21355;DHT22;10835;50.148;19.760;2024-01-30T09:57:04;18.30;41.00
21355;DHT22;10835;50.148;19.760;2024-01-30T09:59:35;18.10;40.70
21355;DHT22;10835;50.148;19.760;2024-01-30T10:02:04;18.00;40.80
21355;DHT22;10835;50.148;19.760;2024-01-30T10:04:32;18.50;41.10
21355;DHT22;10835;50.148;19.760;2024-01-30T10:07:02;18.50;40.60
21355;DHT22;10835;50.148;19.760;2024-01-30T10:09:32;18.30;39.70
21355;DHT22;10835;50.148;19.760;2024-01-30T10:12:02;18.50;38.30
21355;DHT22;10835;50.148;19.760;2024-01-30T10:14:31;18.40;38.80
21355;DHT22;10835;50.148;19.760;2024-01-30T10:17:02;18.00;39.40
21355;DHT22;10835;50.148;19.760;2024-01-30T10:19:43;18.60;39.60
21355;DHT22;10835;50.148;19.760;2024-01-30T10:22:12;18.50;40.00
21355;DHT22;10835;50.148;19.760;2024-01-30T10:24:40;18.50;39.70
21355;DHT22;10835;50.148;19.760;2024-01-30T10:27:09;18.40;39.80
21355;DHT22;10835;50.148;19.760;2024-01-30T10:29:38;18.60;39.40
21355;DHT22;10835;50.148;19.760;2024-01-30T10:32:08;18.70;40.00
21355;DHT22;10835;50.148;19.760;2024-01-30T10:34:37;18.70;39.90
21355;DHT22;10835;50.148;19.760;2024-01-30T10:37:08;19.00;39.30
21355;DHT22;10835;50.148;19.760;2024-01-30T10:39:40;19.00;40.00
21355;DHT22;10835;50.148;19.760;2024-01-30T10:42:12;19.70;39.00
21355;DHT22;10835;50.148;19.760;2024-01-30T10:44:48;19.90;38.70
21355;DHT22;10835;50.148;19.760;2024-01-30T10:47:26;20.20;38.80
21355;DHT22;10835;50.148;19.760;2024-01-30T10:49:56;19.50;38.30
21355;DHT22;10835;50.148;19.760;2024-01-30T10:52:25;19.30;38.30
21355;DHT22;10835;50.148;19.760;2024-01-30T10:54:56;19.70;38.80
21355;DHT22;10835;50.148;19.760;2024-01-30T10:57:26;19.40;38.50
21355;DHT22;10835;50.148;19.760;2024-01-30T10:59:57;20.00;38.80
21355;DHT22;10835;50.148;19.760;2024-01-30T11:02:28;20.00;38.90
21355;DHT22;10835;50.148;19.760;2024-01-30T11:04:58;19.90;38.30
21355;DHT22;10835;50.148;19.760;2024-01-30T11:07:28;19.70;38.20
21355;DHT22;10835;50.148;19.760;2024-01-30T11:10:01;19.50;38.90
21355;DHT22;10835;50.148;19.760;2024-01-30T11:12:32;19.30;38.70
21355;DHT22;10835;50.148;19.760;2024-01-30T11:15:02;19.00;39.00
21355;DHT22;10835;50.148;19.760;2024-01-30T11:17:50;18.90;38.60
21355;DHT22;10835;50.148;19.760;2024-01-30T11:20:21;19.10;38.70
21355;DHT22;10835;50.148;19.760;2024-01-30T11:22:52;18.60;39.20
21355;DHT22;10835;50.148;19.760;2024-01-30T11:25:21;18.50;39.50
21355;DHT22;10835;50.148;19.760;2024-01-30T11:27:51;18.70;39.30
21355;DHT22;10835;50.148;19.760;2024-01-30T11:30:24;18.80;40.00
21355;DHT22;10835;50.148;19.760;2024-01-30T11:33:01;19.00;39.60
21355;DHT22;10835;50.148;19.760;2024-01-30T11:35:33;19.00;39.80
21355;DHT22;10835;50.148;19.760;2024-01-30T11:38:03;19.10;39.80
21355;DHT22;10835;50.148;19.760;2024-01-30T11:40:33;19.10;39.40
21355;DHT22;10835;50.148;19.760;2024-01-30T11:43:03;19.40;38.80
21355;DHT22;10835;50.148;19.760;2024-01-30T11:45:32;19.30;38.90
21355;DHT22;10835;50.148;19.760;2024-01-30T11:48:03;19.70;39.60
21355;DHT22;10835;50.148;19.760;2024-01-30T11:50:33;19.70;38.90
21355;DHT22;10835;50.148;19.760;2024-01-30T11:53:02;20.10;38.80
21355;DHT22;10835;50.148;19.760;2024-01-30T11:55:31;19.90;39.20
21355;DHT22;10835;50.148;19.760;2024-01-30T11:58:02;20.20;38.00
21355;DHT22;10835;50.148;19.760;2024-01-30T12:00:31;20.10;37.70
21355;DHT22;10835;50.148;19.760;2024-01-30T12:03:03;20.20;37.30
21355;DHT22;10835;50.148;19.760;2024-01-30T12:05:34;20.10;37.90
21355;DHT22;10835;50.148;19.760;2024-01-30T12:08:04;20.50;37.50
21355;DHT22;10835;50.148;19.760;2024-01-30T12:10:33;20.20;37.80
21355;DHT22;10835;50.148;19.760;2024-01-30T12:13:02;20.10;38.10
21355;DHT22;10835;50.148;19.760;2024-01-30T12:15:30;20.40;37.70
21355;DHT22;10835;50.148;19.760;2024-01-30T12:18:07;21.00;37.20
21355;DHT22;10835;50.148;19.760;2024-01-30T12:20:36;21.30;37.00
21355;DHT22;10835;50.148;19.760;2024-01-30T12:23:04;21.40;37.00
21355;DHT22;10835;50.148;19.760;2024-01-30T12:25:33;21.40;36.40
21355;DHT22;10835;50.148;19.760;2024-01-30T12:28:02;21.10;36.60
21355;DHT22;10835;50.148;19.760;2024-01-30T12:30:31;21.50;36.40
21355;DHT22;10835;50.148;19.760;2024-01-30T12:33:00;22.00;35.90
21355;DHT22;10835;50.148;19.760;2024-01-30T12:35:34;22.00;34.90
21355;DHT22;10835;50.148;19.760;2024-01-30T12:38:07;22.40;35.90
21355;DHT22;10835;50.148;19.760;2024-01-30T12:40:36;22.60;35.20
21355;DHT22;10835;50.148;19.760;2024-01-30T12:43:08;22.30;34.40
21355;DHT22;10835;50.148;19.760;2024-01-30T12:45:37;22.50;34.60
21355;DHT22;10835;50.148;19.760;2024-01-30T12:48:06;22.30;34.30
21355;DHT22;10835;50.148;19.760;2024-01-30T12:50:36;22.30;34.60
21355;DHT22;10835;50.148;19.760;2024-01-30T12:53:04;21.70;34.60
21355;DHT22;10835;50.148;19.760;2024-01-30T12:55:33;22.00;34.30
21355;DHT22;10835;50.148;19.760;2024-01-30T12:58:02;22.10;33.90
21355;DHT22;10835;50.148;19.760;2024-01-30T13:00:30;21.90;34.40
21355;DHT22;10835;50.148;19.760;2024-01-30T13:02:59;21.80;34.40
21355;DHT22;10835;50.148;19.760;2024-01-30T13:05:27;21.60;34.80
21355;DHT22;10835;50.148;19.760;2024-01-30T13:07:57;22.40;35.20
21355;DHT22;10835;50.148;19.760;2024-01-30T13:10:26;23.10;34.40
21355;DHT22;10835;50.148;19.760;2024-01-30T13:12:54;22.90;33.50
21355;DHT22;10835;50.148;19.760;2024-01-30T13:15:23;23.20;33.40
21355;DHT22;10835;50.148;19.760;2024-01-30T13:17:51;22.80;33.50
21355;DHT22;10835;50.148;19.760;2024-01-30T13:20:21;22.40;33.70
21355;DHT22;10835;50.148;19.760;2024-01-30T13:22:50;22.60;34.20
21355;DHT22;10835;50.148;19.760;2024-01-30T13:25:19;22.40;34.00
21355;DHT22;10835;50.148;19.760;2024-01-30T13:27:48;22.60;33.30
21355;DHT22;10835;50.148;19.760;2024-01-30T13:30:17;23.00;33.00
21355;DHT22;10835;50.148;19.760;2024-01-30T13:32:45;22.60;33.30
21355;DHT22;10835;50.148;19.760;2024-01-30T13:35:14;22.90;33.10
21355;DHT22;10835;50.148;19.760;2024-01-30T13:37:42;22.70;33.50
21355;DHT22;10835;50.148;19.760;2024-01-30T13:40:11;22.50;32.90
21355;DHT22;10835;50.148;19.760;2024-01-30T13:42:43;22.20;33.20
21355;DHT22;10835;50.148;19.760;2024-01-30T13:45:11;22.50;33.90
21355;DHT22;10835;50.148;19.760;2024-01-30T13:47:40;22.20;33.40
21355;DHT22;10835;50.148;19.760;2024-01-30T13:50:09;22.50;33.60
21355;DHT22;10835;50.148;19.760;2024-01-30T13:52:42;22.00;33.90
21355;DHT22;10835;50.148;19.760;2024-01-30T13:55:12;22.00;33.50
21355;DHT22;10835;50.148;19.760;2024-01-30T13:57:42;22.30;33.80
21355;DHT22;10835;50.148;19.760;2024-01-30T14:00:13;22.50;34.10
21355;DHT22;10835;50.148;19.760;2024-01-30T14:02:43;22.40;33.10
21355;DHT22;10835;50.148;19.760;2024-01-30T14:05:12;22.10;33.70
21355;DHT22;10835;50.148;19.760;2024-01-30T14:07:43;22.50;33.30
21355;DHT22;10835;50.148;19.760;2024-01-30T14:10:12;22.60;32.60
21355;DHT22;10835;50.148;19.760;2024-01-30T14:12:43;22.50;33.40
21355;DHT22;10835;50.148;19.760;2024-01-30T14:15:12;22.80;33.50
21355;DHT22;10835;50.148;19.760;2024-01-30T14:17:54;22.70;34.40
21355;DHT22;10835;50.148;19.760;2024-01-30T14:20:23;22.90;34.30
21355;DHT22;10835;50.148;19.760;2024-01-30T14:22:52;22.70;33.40
21355;DHT22;10835;50.148;19.760;2024-01-30T14:25:23;22.60;33.60
21355;DHT22;10835;50.148;19.760;2024-01-30T14:27:53;22.50;34.20
21355;DHT22;10835;50.148;19.760;2024-01-30T14:30:22;22.70;34.60
21355;DHT22;10835;50.148;19.760;2024-01-30T14:32:50;22.60;35.10
21355;DHT22;10835;50.148;19.760;2024-01-30T14:35:20;22.50;35.70
21355;DHT22;10835;50.148;19.760;2024-01-30T14:37:49;22.40;36.20
21355;DHT22;10835;50.148;19.760;2024-01-30T14:40:18;22.40;36.60
21355;DHT22;10835;50.148;19.760;2024-01-30T14:42:47;22.10;36.50
21355;DHT22;10835;50.148;19.760;2024-01-30T14:45:17;22.00;37.00
21355;DHT22;10835;50.148;19.760;2024-01-30T14:47:46;21.80;37.00
21355;DHT22;10835;50.148;19.760;2024-01-30T14:50:14;21.90;38.10
21355;DHT22;10835;50.148;19.760;2024-01-30T14:52:44;21.40;37.30
21355;DHT22;10835;50.148;19.760;2024-01-30T14:55:13;21.40;38.40
21355;DHT22;10835;50.148;19.760;2024-01-30T14:57:41;21.30;38.40
21355;DHT22;10835;50.148;19.760;2024-01-30T15:00:13;21.00;38.50
21355;DHT22;10835;50.148;19.760;2024-01-30T15:02:44;20.50;38.70
21355;DHT22;10835;50.148;19.760;2024-01-30T15:05:14;20.50;39.40
21355;DHT22;10835;50.148;19.760;2024-01-30T15:07:43;20.30;39.50
21355;DHT22;10835;50.148;19.760;2024-01-30T15:10:12;20.10;39.80
21355;DHT22;10835;50.148;19.760;2024-01-30T15:12:41;19.60;39.70
21355;DHT22;10835;50.148;19.760;2024-01-30T15:15:09;19.50;40.50
21355;DHT22;10835;50.148;19.760;2024-01-30T15:17:38;19.80;40.90
21355;DHT22;10835;50.148;19.760;2024-01-30T15:20:09;20.10;40.40
21355;DHT22;10835;50.148;19.760;2024-01-30T15:22:38;20.40;40.20
21355;DHT22;10835;50.148;19.760;2024-01-30T15:25:07;20.40;39.50
21355;DHT22;10835;50.148;19.760;2024-01-30T15:27:36;20.30;39.50